Wetterdaten: aktuell Donnerstag, 14.11.2019 22:31
Datum Zeit Temp. I. Temp. A. Feuchte I. Feuchte A. Luftdruck Regen Wind Richtung Richtung Taupunkt Windchill Windben
14.11.2019 22:31 18,9 C 1,6 C 45 % 90 % 993,3 hPa 0,0 l/m 3,6 km/h (1 Bft) W-NW 294 0,1 C 1,6 C 7,2 km/h (2 Bft)
14.11.2019 21:31 18,7 C 1,6 C 44 % 90 % 994,3 hPa 0,0 l/m 5,8 km/h (2 Bft) N-NW 332 0,1 C 1,6 C 8,6 km/h (2 Bft)
14.11.2019 20:31 18,6 C 1,8 C 44 % 90 % 994,3 hPa 0,0 l/m 7,2 km/h (2 Bft) NW 323 0,3 C 1,0 C 7,9 km/h (2 Bft)
14.11.2019 19:31 18,6 C 1,9 C 44 % 91 % 995,3 hPa 0,0 l/m 7,2 km/h (2 Bft) N 8 0,6 C 1,1 C 7,9 km/h (2 Bft)
14.11.2019 18:31 18,6 C 2,0 C 44 % 90 % 995,3 hPa 0,0 l/m 9,4 km/h (2 Bft) N-NO 29 0,5 C -0,8 C 12,2 km/h (2 Bft)
14.11.2019 17:31 18,6 C 2,2 C 45 % 84 % 995,3 hPa 0,0 l/m 6,5 km/h (2 Bft) N 357 -0,2 C 2,1 C 10,1 km/h (2 Bft)
14.11.2019 16:31 18,6 C 4,0 C 45 % 76 % 995,0 hPa 0,0 l/m 7,9 km/h (2 Bft) N-NO 19 0,2 C 2,6 C 8,6 km/h (2 Bft)
14.11.2019 15:31 18,7 C 6,5 C 45 % 68 % 994,6 hPa 0,0 l/m 4,3 km/h (1 Bft) N 8 1,0 C 6,5 C 6,5 km/h (2 Bft)
14.11.2019 14:31 18,7 C 8,1 C 45 % 64 % 995,4 hPa 0,0 l/m 5,8 km/h (2 Bft) N-NO 20 1,7 C 8,1 C 6,5 km/h (2 Bft)
14.11.2019 13:31 18,7 C 8,7 C 45 % 64 % 995,4 hPa 0,0 l/m 6,5 km/h (2 Bft) NO 44 2,3 C 8,6 C 10,1 km/h (2 Bft)
14.11.2019 12:31 18,7 C 8,4 C 45 % 67 % 996,4 hPa 0,0 l/m 0,0 km/h (0 Bft) O-NO 71 2,6 C 8,4 C 0,0 km/h (0 Bft)
14.11.2019 11:31 18,7 C 5,6 C 46 % 82 % 996,8 hPa 0,0 l/m 0,0 km/h (0 Bft) S-SO 167 2,8 C 5,6 C 0,0 km/h (0 Bft)
14.11.2019 10:31 18,8 C 3,1 C 46 % 94 % 998,3 hPa 0,0 l/m 0,0 km/h (0 Bft) SW 226 2,2 C 3,1 C 4,3 km/h (1 Bft)
14.11.2019 09:31 18,8 C 1,7 C 46 % 98 % 998,5 hPa 0,0 l/m 3,6 km/h (1 Bft) N-NW 338 1,4 C 1,7 C 0,0 km/h (0 Bft)
14.11.2019 08:31 18,9 C 1,2 C 47 % 98 % 997,5 hPa 0,0 l/m 0,0 km/h (0 Bft) NW 304 0,9 C 1,2 C 5,0 km/h (1 Bft)
14.11.2019 07:31 18,9 C 1,0 C 48 % 92 % 997,5 hPa 0,0 l/m 3,6 km/h (1 Bft) N-NO 17 -0,2 C 1,0 C 5,0 km/h (1 Bft)
14.11.2019 06:31 19,0 C 2,1 C 48 % 92 % 997,4 hPa 0,0 l/m 6,5 km/h (2 Bft) O 92 0,9 C 2,0 C 8,6 km/h (2 Bft)
14.11.2019 05:31 19,0 C 2,4 C 48 % 94 % 997,3 hPa 0,0 l/m 5,8 km/h (2 Bft) O 87 1,5 C 2,4 C 7,9 km/h (2 Bft)
14.11.2019 04:31 19,0 C 2,4 C 48 % 95 % 997,3 hPa 0,0 l/m 3,6 km/h (1 Bft) O 99 1,7 C 2,4 C 0,0 km/h (0 Bft)
14.11.2019 03:31 19,0 C 2,7 C 47 % 99 % 997,3 hPa 0,0 l/m 5,8 km/h (2 Bft) O 82 2,6 C 2,7 C 5,8 km/h (2 Bft)
14.11.2019 02:31 19,0 C 2,9 C 46 % 100 % 997,2 hPa 0,0 l/m 5,8 km/h (2 Bft) O-NO 75 2,9 C 2,9 C 8,6 km/h (2 Bft)
14.11.2019 01:31 19,0 C 3,2 C 45 % 100 % 997,2 hPa 0,0 l/m 4,3 km/h (1 Bft) SO 125 3,2 C 3,2 C 6,5 km/h (2 Bft)
14.11.2019 00:31 19,0 C 3,3 C 45 % 100 % 998,2 hPa 0,0 l/m 0,0 km/h (0 Bft) O-SO 106 3,3 C 3,3 C 6,5 km/h (2 Bft)
13.11.2019 23:31 18,8 C 3,3 C 44 % 100 % 997,2 hPa 0,0 l/m 3,6 km/h (1 Bft) O-SO 112 3,3 C 3,3 C 5,0 km/h (1 Bft)
13.11.2019 23:00 18,9 C 3,2 C 44 % 100 % 998,2 hPa 0,0 l/m 5,0 km/h (1 Bft) O-SO 105 3,2 C 3,2 C 5,8 km/h (2 Bft)
_ Min-Zeit 15:50 07:35 23:00 12:46 22:31 - 23:12 - - 17:20 17:40 23:11
Minimum _ 18,6 C 0,9 C 44 % 64 % 993,3 hPa - 0,0 km/h (0 Bft) - - -0,4 C -1,2 C 0,0 km/h (0 Bft)
_ Max-Zeit 00:37 13:08 05:27 23:00 09:05 23:00 13:17 - - 10:58 13:09 13:17
Maximum _ 19,1 C 9,0 C 49 % 100 % 998,5 hPa 0,0 l/m 11,5 km/h
O-NO (2 Bft)
- - 3,4 C 9,0 C 16,9 km/h
O-NO (3 Bft)
Durchschnitt _ 18,8 C 3,4 C 46 % 88 % 996,5 hPa #0,0 l/m 4,3 km/h (1 Bft) N-NO - 1,5 C 3,2 C 6,0 km/h (2 Bft)